createdAt,value
2022-08-28T00:06:46.229Z,45
2022-08-28T00:16:48.733Z,47
2022-08-28T00:26:51.420Z,47
2022-08-28T00:36:53.852Z,52
2022-08-28T00:47:02.369Z,45
2022-08-28T00:57:02.306Z,44
2022-08-28T01:07:04.819Z,47
2022-08-28T01:17:07.465Z,45
2022-08-28T01:27:11.691Z,45
2022-08-28T01:37:15.121Z,43
2022-08-28T01:47:16.474Z,42
2022-08-28T01:57:23.018Z,42
2022-08-28T02:07:22.471Z,42
2022-08-28T02:17:26.702Z,41
2022-08-28T02:27:28.319Z,42
2022-08-28T02:37:32.615Z,42
2022-08-28T02:47:33.020Z,40
2022-08-28T02:57:35.680Z,42
2022-08-28T03:07:38.720Z,41
2022-08-28T03:17:43.887Z,41
2022-08-28T03:27:46.971Z,44
2022-08-28T03:37:49.446Z,43
2022-08-28T03:47:51.656Z,45
2022-08-28T03:57:53.996Z,47
2022-08-28T04:07:58.537Z,43
2022-08-28T04:18:01.886Z,47
2022-08-28T04:28:04.124Z,48
2022-08-28T04:38:08.850Z,43
2022-08-28T04:48:14.303Z,44
2022-08-28T04:58:14.324Z,45
2022-08-28T05:08:18.805Z,45
2022-08-28T05:18:22.775Z,42
2022-08-28T05:28:25.278Z,41
2022-08-28T05:38:29.057Z,43
2022-08-28T05:48:39.775Z,42
2022-08-28T05:58:39.567Z,42
2022-08-28T06:08:56.240Z,40
2022-08-28T06:19:08.295Z,40
2022-08-28T06:29:10.539Z,38
2022-08-28T06:39:21.551Z,37
2022-08-28T06:49:23.300Z,36
2022-08-28T06:59:26.105Z,33
2022-08-28T07:09:31.920Z,37
2022-08-28T07:19:38.582Z,38
2022-08-28T07:29:50.150Z,38
2022-08-28T07:39:54.025Z,36
2022-08-28T07:49:56.766Z,36
2022-08-28T07:59:59.788Z,36
2022-08-28T08:10:05.774Z,37
2022-08-28T08:20:09.820Z,38
2022-08-28T08:30:09.829Z,38
2022-08-28T08:40:12.170Z,38
2022-08-28T08:50:15.343Z,38
2022-08-28T09:00:18.735Z,42
2022-08-28T09:10:22.911Z,40
2022-08-28T09:20:33.784Z,39
2022-08-28T09:30:34.164Z,42
2022-08-28T09:40:40.446Z,38
2022-08-28T09:50:47.174Z,39
2022-08-28T10:00:50.836Z,41
2022-08-28T10:10:55.487Z,39
2022-08-28T10:21:04.414Z,37
2022-08-28T10:31:04.669Z,37
2022-08-28T10:41:07.496Z,36
2022-08-28T10:51:12.967Z,33
2022-08-28T11:01:18.251Z,35
2022-08-28T11:11:21.465Z,36
2022-08-28T11:21:26.296Z,36
2022-08-28T11:31:31.170Z,36
2022-08-28T11:41:30.406Z,36
2022-08-28T11:51:35.121Z,36
2022-08-28T12:01:37.482Z,35
2022-08-28T12:11:41.147Z,38
2022-08-28T12:21:43.172Z,37
2022-08-28T12:31:47.056Z,34
2022-08-28T12:41:50.122Z,35
2022-08-28T12:51:53.387Z,34
2022-08-28T13:01:56.257Z,34
2022-08-28T13:12:03.673Z,34
2022-08-28T13:22:04.454Z,31
2022-08-28T13:32:07.725Z,33
2022-08-28T13:42:10.866Z,32
2022-08-28T13:52:18.798Z,31
2022-08-28T14:02:19.658Z,29
2022-08-28T14:12:33.129Z,30
2022-08-28T14:22:38.552Z,31
2022-08-28T14:32:41.022Z,30
2022-08-28T14:42:43.700Z,32
2022-08-28T14:52:50.978Z,33
2022-08-28T15:03:00.124Z,29
2022-08-28T15:13:08.877Z,30
2022-08-28T15:23:08.890Z,30
2022-08-28T15:33:09.321Z,30
2022-08-28T15:43:11.403Z,30
2022-08-28T15:53:18.392Z,33
2022-08-28T16:03:21.600Z,32
2022-08-28T16:13:21.431Z,30
2022-08-28T16:23:23.880Z,30
2022-08-28T16:33:26.094Z,31
2022-08-28T16:43:29.121Z,30
2022-08-28T16:53:31.759Z,32
2022-08-28T17:03:34.624Z,30
2022-08-28T17:13:37.331Z,30
2022-08-28T17:23:43.998Z,32
2022-08-28T17:33:44.855Z,30
2022-08-28T17:43:51.659Z,31
2022-08-28T17:53:52.964Z,31
2022-08-28T18:03:55.807Z,30
2022-08-28T18:13:58.695Z,32
2022-08-28T18:23:59.968Z,33
2022-08-28T18:34:03.975Z,32
2022-08-28T18:44:07.082Z,33
2022-08-28T18:54:13.464Z,32
2022-08-28T19:04:15.477Z,32
2022-08-28T19:14:18.897Z,32
2022-08-28T19:24:22.100Z,30
2022-08-28T19:34:24.182Z,32
2022-08-28T19:44:28.777Z,32
2022-08-28T19:54:30.420Z,34
2022-08-28T20:04:34.746Z,33
2022-08-28T20:14:36.394Z,31
2022-08-28T20:24:44.933Z,31
2022-08-28T20:34:45.914Z,30
2022-08-28T20:44:51.583Z,30
2022-08-28T20:54:52.897Z,28
2022-08-28T21:04:56.454Z,30
2022-08-28T21:15:17.544Z,27
2022-08-28T21:25:19.750Z,29
2022-08-28T21:35:23.779Z,27
2022-08-28T21:45:27.119Z,27
2022-08-28T21:55:28.671Z,29
2022-08-28T22:05:32.788Z,29
2022-08-28T22:15:34.768Z,30
2022-08-28T22:25:41.409Z,29
2022-08-28T22:35:41.586Z,30
2022-08-28T22:45:46.055Z,30
2022-08-28T22:55:49.638Z,31
2022-08-28T23:05:53.039Z,31
2022-08-28T23:15:55.249Z,31
2022-08-28T23:25:59.044Z,30
2022-08-28T23:36:03.967Z,30
2022-08-28T23:46:07.248Z,29
2022-08-28T23:56:09.439Z,31
